Time;durP1;ratioP1;P1;durP2;ratioP2;P2;SDS_P1;SDS_P2;PMS_P1;PMS_P2;Temp;Humidity;BMP_temperature;BMP_pressure;BME280_temperature;BME280_humidity;BME280_pressure;Samples;Min_cycle;Max_cycle;Signal;HPM_P1;HPM_P2
2023/01/20 00:00:45;;;;;;;12.70;9.93;;;;;;;-0.56;100.00;151228.59;5028449;28;20447;-83
2023/01/20 00:03:12;;;;;;;14.53;11.27;;;;;;;-0.55;100.00;151229.81;5027594;28;20962;-83
2023/01/20 00:05:38;;;;;;;12.90;9.93;;;;;;;-0.54;100.00;151232.41;5019644;28;20809;-83
2023/01/20 00:08:07;;;;;;;14.97;10.87;;;;;;;-0.54;100.00;151233.69;5029259;28;20486;-83
2023/01/20 00:10:33;;;;;;;13.67;11.23;;;;;;;-0.53;100.00;151236.22;5028878;28;20438;-82
2023/01/20 00:13:00;;;;;;;13.67;11.13;;;;;;;-0.51;100.00;151241.41;5017093;28;20486;-83
2023/01/20 00:15:27;;;;;;;15.10;11.07;;;;;;;-0.50;100.00;151243.94;5028000;28;20465;-83
2023/01/20 00:17:53;;;;;;;13.97;10.40;;;;;;;-0.49;100.00;151246.53;5025110;28;20557;-85
2023/01/20 00:20:20;;;;;;;13.53;10.90;;;;;;;-0.47;100.00;151251.63;5026914;28;20525;-83
2023/01/20 00:22:47;;;;;;;14.47;11.17;;;;;;;-0.41;100.00;151265.75;5029274;28;20451;-83
2023/01/20 00:25:15;;;;;;;14.43;11.13;;;;;;;-0.38;100.00;151273.44;5032216;28;20533;-83
2023/01/20 00:27:42;;;;;;;12.67;11.37;;;;;;;-0.42;100.00;151264.47;5028085;28;20446;-83
2023/01/20 00:30:09;;;;;;;12.40;11.07;;;;;;;-0.42;100.00;151264.47;5028366;28;20455;-83
2023/01/20 00:32:38;;;;;;;14.53;11.40;;;;;;;-0.46;100.00;151252.94;5025457;28;20873;-83
2023/01/20 00:35:05;;;;;;;14.00;11.17;;;;;;;-0.45;100.00;151255.50;5029645;28;20445;-85
2023/01/20 00:37:32;;;;;;;15.50;10.93;;;;;;;-0.43;100.00;151260.63;5009943;28;20455;-85
2023/01/20 00:39:59;;;;;;;17.30;11.30;;;;;;;-0.43;100.00;151261.94;5026641;28;20450;-85
2023/01/20 00:42:27;;;;;;;12.40;10.97;;;;;;;-0.42;100.00;151264.47;5024663;28;20536;-84
2023/01/20 00:44:53;;;;;;;13.47;10.87;;;;;;;-0.43;100.00;151261.94;5030360;28;20446;-85
2023/01/20 00:47:20;;;;;;;13.03;10.67;;;;;;;-0.43;100.00;151260.63;5028785;28;20529;-85
2023/01/20 00:49:47;;;;;;;14.13;12.07;;;;;;;-0.44;100.00;151259.34;5023547;28;20545;-84
2023/01/20 00:52:14;;;;;;;15.57;11.23;;;;;;;-0.45;100.00;151256.75;5020263;28;20442;-84
2023/01/20 00:54:40;;;;;;;11.70;10.50;;;;;;;-0.45;100.00;151256.75;5027070;28;20826;-84
2023/01/20 00:57:07;;;;;;;14.70;11.13;;;;;;;-0.45;100.00;151255.50;5017306;28;20455;-84
2023/01/20 00:59:35;;;;;;;14.20;11.73;;;;;;;-0.45;100.00;151256.75;5020991;28;20500;-84
2023/01/20 01:02:02;;;;;;;16.73;11.80;;;;;;;-0.42;100.00;151264.47;5028720;28;21070;-84
2023/01/20 01:04:28;;;;;;;17.30;12.80;;;;;;;-0.41;100.00;151267.03;5028903;28;20577;-84
2023/01/20 01:06:55;;;;;;;12.67;10.90;;;;;;;-0.42;100.00;151264.47;5024471;28;20597;-84
2023/01/20 01:09:22;;;;;;;19.50;13.60;;;;;;;-0.42;100.00;151264.47;5027613;28;20464;-84
2023/01/20 01:11:49;;;;;;;14.30;11.47;;;;;;;-0.43;100.00;151261.94;5028473;28;20472;-84
2023/01/20 01:14:15;;;;;;;16.63;12.50;;;;;;;-0.43;100.00;151261.94;5027543;28;20466;-84
2023/01/20 01:16:44;;;;;;;18.03;11.60;;;;;;;-0.44;100.00;151259.34;5018630;28;20554;-84
2023/01/20 01:19:10;;;;;;;15.67;12.30;;;;;;;-0.46;100.00;151254.22;5036867;28;20493;-84
2023/01/20 01:21:37;;;;;;;12.57;10.23;;;;;;;-0.45;100.00;151255.50;5043400;28;20532;-84
2023/01/20 01:24:04;;;;;;;16.80;12.20;;;;;;;-0.44;100.00;151259.34;5025906;28;20456;-84
2023/01/20 01:26:31;;;;;;;13.53;11.10;;;;;;;-0.46;100.00;151254.22;5028650;28;20636;-84
2023/01/20 01:28:58;;;;;;;14.17;11.20;;;;;;;-0.44;100.00;151258.03;5033131;28;20457;-84
2023/01/20 01:31:24;;;;;;;14.33;11.87;;;;;;;-0.45;100.00;151256.75;5031156;28;20454;-84
2023/01/20 01:33:52;;;;;;;12.67;11.07;;;;;;;-0.47;100.00;151251.63;5034237;28;20482;-84
2023/01/20 01:36:19;;;;;;;15.67;12.90;;;;;;;-0.48;100.00;151247.81;5030072;28;20775;-84
2023/01/20 01:38:46;;;;;;;15.93;12.00;;;;;;;-0.49;100.00;151246.53;5030968;28;20454;-84
2023/01/20 01:41:14;;;;;;;14.40;10.90;;;;;;;-0.47;100.00;151250.34;5029858;28;20545;-84
2023/01/20 01:44:00;;;;;;;14.37;11.67;;;;;;;-0.47;100.00;151251.63;5029997;28;20452;-84
2023/01/20 01:46:26;;;;;;;15.17;12.27;;;;;;;-0.47;100.00;151251.63;5029056;28;20486;-84
2023/01/20 01:48:55;;;;;;;15.53;11.70;;;;;;;-0.46;100.00;151254.22;5031700;28;20450;-84
2023/01/20 01:51:26;;;;;;;12.70;11.40;;;;;;;-0.47;100.00;151250.34;5032801;28;20894;-84
2023/01/20 01:53:56;;;;;;;13.70;12.20;;;;;;;-0.47;100.00;151250.34;5028084;28;20477;-84
2023/01/20 01:56:24;;;;;;;16.20;12.87;;;;;;;-0.47;100.00;151251.63;5044891;28;20450;-84
2023/01/20 01:58:52;;;;;;;12.80;11.00;;;;;;;-0.48;100.00;151249.09;5031360;28;20849;-84
2023/01/20 02:01:18;;;;;;;17.73;11.37;;;;;;;-0.50;100.00;151243.94;5026383;28;20637;-84
2023/01/20 02:03:52;;;;;;;14.03;11.47;;;;;;;-0.52;100.00;151238.81;5029748;28;20478;-84
2023/01/20 02:06:22;;;;;;;12.97;10.50;;;;;;;-0.54;100.00;151233.69;5029165;28;20458;-84
2023/01/20 02:08:49;;;;;;;13.57;11.63;;;;;;;-0.53;100.00;151235.00;5030839;28;20493;-84
2023/01/20 02:11:15;;;;;;;17.97;12.13;;;;;;;-0.55;100.00;151231.13;5027991;28;20793;-84
2023/01/20 02:13:42;;;;;;;19.93;13.53;;;;;;;-0.54;100.00;151232.41;5030143;28;20529;-84
2023/01/20 02:16:15;;;;;;;17.90;12.27;;;;;;;-0.55;100.00;151231.13;5036270;28;20477;-84
2023/01/20 02:18:50;;;;;;;18.17;13.30;;;;;;;-0.54;100.00;151233.69;5033580;28;20466;-84
2023/01/20 02:21:50;;;;;;;14.03;12.00;;;;;;;-0.57;100.00;151226.00;5031325;28;20442;-84
2023/01/20 02:24:31;;;;;;;14.80;11.57;;;;;;;-0.58;100.00;151223.41;5028974;28;20949;-84
2023/01/20 02:27:04;;;;;;;15.60;12.40;;;;;;;-0.53;100.00;151235.00;5024865;28;21019;-84
2023/01/20 02:29:53;;;;;;;17.03;13.17;;;;;;;-0.53;100.00;151236.22;5032162;28;20775;-84
2023/01/20 02:32:34;;;;;;;16.67;12.90;;;;;;;-0.53;100.00;151236.22;5029165;28;20447;-82
2023/01/20 02:35:06;;;;;;;17.13;13.27;;;;;;;-0.53;100.00;151235.00;5029568;28;20481;-83
2023/01/20 02:37:36;;;;;;;18.07;12.30;;;;;;;-0.55;100.00;151231.13;5037142;28;20470;-85
2023/01/20 02:40:13;;;;;;;17.10;12.97;;;;;;;-0.52;100.00;151238.81;5013496;28;20527;-83
2023/01/20 02:42:45;;;;;;;14.67;11.83;;;;;;;-0.50;100.00;151243.94;5039702;28;20555;-84
2023/01/20 02:45:16;;;;;;;15.63;11.97;;;;;;;-0.47;100.00;151251.63;5039989;28;20443;-84
2023/01/20 02:47:46;;;;;;;15.70;11.80;;;;;;;-0.43;100.00;151261.94;5032066;28;20444;-84
2023/01/20 02:50:15;;;;;;;15.13;12.20;;;;;;;-0.44;100.00;151259.34;5024200;28;20533;-84
2023/01/20 02:52:45;;;;;;;15.07;12.03;;;;;;;-0.44;100.00;151259.34;5025438;28;20584;-84
2023/01/20 02:55:15;;;;;;;13.37;11.10;;;;;;;-0.43;100.00;151260.63;5031871;28;20501;-84
2023/01/20 02:57:44;;;;;;;14.27;11.87;;;;;;;-0.42;100.00;151263.16;5043707;28;20474;-84
2023/01/20 03:00:14;;;;;;;13.70;11.70;;;;;;;-0.43;100.00;151261.94;5027560;28;20978;-84
2023/01/20 03:02:43;;;;;;;14.10;11.50;;;;;;;-0.40;100.00;151269.63;5026286;28;20584;-84
2023/01/20 03:05:13;;;;;;;12.77;10.30;;;;;;;-0.42;100.00;151264.47;5040100;28;20520;-84
2023/01/20 03:07:41;;;;;;;11.83;9.47;;;;;;;-0.42;100.00;151264.47;5024758;28;20929;-84
2023/01/20 03:10:11;;;;;;;13.30;9.40;;;;;;;-0.40;100.00;151268.34;5047552;28;20439;-84
2023/01/20 03:12:40;;;;;;;12.30;9.90;;;;;;;-0.39;100.00;151270.88;5028087;28;21055;-84
2023/01/20 03:15:09;;;;;;;15.30;11.30;;;;;;;-0.38;100.00;151273.44;5029822;28;20474;-84
2023/01/20 03:17:36;;;;;;;13.77;10.70;;;;;;;-0.38;100.00;151274.75;5028934;28;20492;-84
2023/01/20 03:20:04;;;;;;;12.50;10.53;;;;;;;-0.37;100.00;151276.03;5029507;28;20439;-84
2023/01/20 03:22:31;;;;;;;15.00;10.00;;;;;;;-0.36;100.00;151278.56;5030269;28;20553;-84
2023/01/20 03:24:58;;;;;;;11.47;10.00;;;;;;;-0.36;100.00;151278.56;5054109;28;20446;-84
2023/01/20 03:27:26;;;;;;;14.10;9.70;;;;;;;-0.37;100.00;151277.28;5025537;28;20485;-84
2023/01/20 03:29:52;;;;;;;13.90;10.13;;;;;;;-0.38;100.00;151274.75;5028855;28;20555;-84
2023/01/20 03:32:24;;;;;;;13.07;9.90;;;;;;;-0.37;100.00;151277.28;5030145;28;20446;-84
2023/01/20 03:34:52;;;;;;;12.73;9.83;;;;;;;-0.39;100.00;151272.16;5030069;28;20475;-84
2023/01/20 03:37:20;;;;;;;12.10;10.10;;;;;;;-0.37;100.00;151277.28;5030352;28;20541;-84
2023/01/20 03:39:46;;;;;;;13.47;10.00;;;;;;;-0.35;100.00;151282.44;5024466;28;20565;-84
2023/01/20 03:42:16;;;;;;;13.63;10.60;;;;;;;-0.35;100.00;151282.44;5028147;28;20442;-84
2023/01/20 03:44:53;;;;;;;11.27;10.20;;;;;;;-0.32;100.00;151288.84;5003542;28;20785;-84
2023/01/20 03:47:34;;;;;;;13.00;10.93;;;;;;;-0.33;100.00;151287.56;5041052;28;20445;-84
2023/01/20 03:50:07;;;;;;;14.10;11.03;;;;;;;-0.31;100.00;151292.69;5027363;28;20446;-83
2023/01/20 03:52:38;;;;;;;14.33;11.00;;;;;;;-0.32;100.00;151290.09;5043064;28;20450;-84
2023/01/20 03:55:10;;;;;;;12.53;10.23;;;;;;;-0.33;100.00;151286.28;5012464;28;20518;-84
2023/01/20 03:57:40;;;;;;;14.03;10.90;;;;;;;-0.33;100.00;151287.56;5020571;28;20482;-84
2023/01/20 04:00:09;;;;;;;14.50;11.60;;;;;;;-0.34;100.00;151283.69;5028815;28;20450;-84
2023/01/20 04:02:39;;;;;;;15.50;10.93;;;;;;;-0.31;100.00;151291.41;5022832;28;20536;-84
2023/01/20 04:05:07;;;;;;;12.23;10.07;;;;;;;-0.34;100.00;151284.97;5044552;28;20521;-83
2023/01/20 04:07:35;;;;;;;11.00;8.63;;;;;;;-0.32;100.00;151290.09;5053187;28;20443;-82
2023/01/20 04:10:06;;;;;;;13.37;9.97;;;;;;;-0.33;100.00;151286.28;5043727;28;20529;-84
2023/01/20 04:12:33;;;;;;;11.43;9.67;;;;;;;-0.34;100.00;151284.97;5028676;28;20463;-84
2023/01/20 04:15:00;;;;;;;12.00;9.90;;;;;;;-0.35;100.00;151281.16;5023760;28;20480;-84
2023/01/20 04:17:28;;;;;;;11.53;8.87;;;;;;;-0.37;100.00;151276.03;5028306;28;20462;-84
2023/01/20 04:19:54;;;;;;;12.63;8.10;;;;;;;-0.36;100.00;151279.88;5027268;28;20540;-84
2023/01/20 04:22:25;;;;;;;10.97;8.67;;;;;;;-0.39;100.00;151272.16;5027463;28;20881;-84
2023/01/20 04:24:55;;;;;;;12.87;8.97;;;;;;;-0.38;100.00;151274.75;5011252;28;20570;-84
2023/01/20 04:27:21;;;;;;;11.50;8.60;;;;;;;-0.38;100.00;151274.75;5030314;28;20435;-84
2023/01/20 04:29:48;;;;;;;12.67;8.70;;;;;;;-0.34;100.00;151284.97;5028303;28;20458;-83
2023/01/20 04:32:15;;;;;;;9.50;7.60;;;;;;;-0.39;100.00;151272.16;5029121;28;20442;-84
2023/01/20 04:34:42;;;;;;;12.23;9.17;;;;;;;-0.37;100.00;151277.28;5041820;28;20562;-84
2023/01/20 04:37:08;;;;;;;10.80;8.00;;;;;;;-0.35;100.00;151281.16;5029060;28;20904;-84
2023/01/20 04:39:35;;;;;;;11.00;8.90;;;;;;;-0.40;100.00;151269.63;5036505;28;20545;-84
2023/01/20 04:42:03;;;;;;;10.20;7.70;;;;;;;-0.41;100.00;151267.03;5030022;28;20447;-84
2023/01/20 04:44:30;;;;;;;9.90;7.67;;;;;;;-0.42;100.00;151264.47;5029061;28;20528;-84
2023/01/20 04:46:57;;;;;;;8.60;7.70;;;;;;;-0.45;100.00;151256.75;5029061;28;20443;-84
2023/01/20 04:49:24;;;;;;;9.30;7.47;;;;;;;-0.46;100.00;151254.22;5026850;28;20979;-84
2023/01/20 04:51:50;;;;;;;9.70;8.17;;;;;;;-0.45;100.00;151255.50;5026356;28;20450;-84
2023/01/20 04:54:17;;;;;;;10.60;7.63;;;;;;;-0.48;100.00;151249.09;5029089;28;20478;-84
2023/01/20 04:56:44;;;;;;;10.40;8.23;;;;;;;-0.48;100.00;151249.09;5025628;28;20536;-84
2023/01/20 04:59:12;;;;;;;10.20;8.90;;;;;;;-0.47;100.00;151251.63;5005549;28;20561;-84
2023/01/20 05:01:38;;;;;;;10.53;8.27;;;;;;;-0.49;100.00;151245.22;5028431;28;20436;-84
2023/01/20 05:04:05;;;;;;;9.30;7.60;;;;;;;-0.51;100.00;151240.09;5031497;28;20573;-84
2023/01/20 05:06:32;;;;;;;12.57;9.23;;;;;;;-0.51;100.00;151241.41;5015162;28;20969;-84
2023/01/20 05:08:58;;;;;;;11.50;8.77;;;;;;;-0.50;100.00;151243.94;5032020;28;20861;-84
2023/01/20 05:11:25;;;;;;;9.37;7.80;;;;;;;-0.48;100.00;151249.09;5031558;28;20557;-84
2023/01/20 05:13:52;;;;;;;10.37;8.20;;;;;;;-0.47;100.00;151251.63;5015437;28;20446;-84
2023/01/20 05:16:23;;;;;;;11.80;8.93;;;;;;;-0.45;100.00;151256.75;5042613;28;20461;-84
2023/01/20 05:18:50;;;;;;;11.97;9.20;;;;;;;-0.46;100.00;151254.22;5033548;28;20457;-83
2023/01/20 05:21:17;;;;;;;14.10;9.77;;;;;;;-0.44;100.00;151259.34;5020686;28;20477;-84
2023/01/20 05:23:43;;;;;;;14.00;10.10;;;;;;;-0.43;100.00;151260.63;5032395;28;20460;-84
2023/01/20 05:26:10;;;;;;;17.97;10.80;;;;;;;-0.42;100.00;151263.16;5033742;28;20529;-84
2023/01/20 05:28:37;;;;;;;16.90;11.87;;;;;;;-0.42;100.00;151263.16;5033528;28;20905;-84
2023/01/20 05:31:04;;;;;;;12.50;10.40;;;;;;;-0.46;100.00;151252.94;5029875;28;20953;-84
2023/01/20 05:33:32;;;;;;;17.23;12.03;;;;;;;-0.47;100.00;151251.63;5008463;28;20488;-84
2023/01/20 05:35:59;;;;;;;16.43;10.70;;;;;;;-0.45;100.00;151255.50;5023960;28;20462;-84
2023/01/20 05:38:26;;;;;;;13.20;9.27;;;;;;;-0.41;100.00;151265.75;5032582;28;20548;-84
2023/01/20 05:40:59;;;;;;;15.83;10.67;;;;;;;-0.41;100.00;151265.75;5034267;28;20434;-84
2023/01/20 05:43:25;;;;;;;14.23;11.00;;;;;;;-0.46;100.00;151254.22;5027647;28;20467;-84
2023/01/20 05:45:52;;;;;;;15.27;11.43;;;;;;;-0.45;100.00;151255.50;4997230;28;21049;-84
2023/01/20 05:48:19;;;;;;;15.43;10.50;;;;;;;-0.45;100.00;151255.50;5025374;28;20453;-84
2023/01/20 05:50:47;;;;;;;12.73;9.73;;;;;;;-0.46;100.00;151254.22;5031024;28;20747;-84
2023/01/20 05:53:14;;;;;;;11.97;10.07;;;;;;;-0.43;100.00;151261.94;5027015;28;20572;-84
2023/01/20 05:55:40;;;;;;;14.63;11.07;;;;;;;-0.46;100.00;151254.22;5026580;28;20983;-83
2023/01/20 05:58:07;;;;;;;12.90;10.13;;;;;;;-0.44;100.00;151258.03;5031061;28;20521;-84
2023/01/20 06:00:34;;;;;;;13.20;10.60;;;;;;;-0.47;100.00;151251.63;5011674;28;20477;-84
2023/01/20 06:03:01;;;;;;;35.63;23.30;;;;;;;-0.45;100.00;151256.75;5039637;28;20551;-84
2023/01/20 06:05:28;;;;;;;17.87;13.33;;;;;;;-0.45;100.00;151256.75;5055588;28;20557;-84
2023/01/20 06:07:56;;;;;;;16.70;11.27;;;;;;;-0.45;100.00;151256.75;5024570;28;20535;-84
2023/01/20 06:10:26;;;;;;;14.03;10.77;;;;;;;-0.43;100.00;151261.94;5006699;28;20466;-84
2023/01/20 06:12:53;;;;;;;14.80;10.17;;;;;;;-0.45;100.00;151256.75;5007498;28;20463;-76
2023/01/20 06:15:22;;;;;;;12.43;9.37;;;;;;;-0.48;100.00;151249.09;5037536;28;20489;-76
2023/01/20 06:17:49;;;;;;;12.97;9.20;;;;;;;-0.50;100.00;151243.94;5046586;28;20447;-76
2023/01/20 06:20:16;;;;;;;13.60;9.03;;;;;;;-0.51;100.00;151241.41;5053241;28;20454;-77
2023/01/20 06:22:42;;;;;;;13.40;9.30;;;;;;;-0.54;100.00;151233.69;5035687;28;20462;-76
2023/01/20 06:25:11;;;;;;;10.43;8.10;;;;;;;-0.55;100.00;151231.13;5041416;28;20521;-76
2023/01/20 06:27:37;;;;;;;11.70;9.17;;;;;;;-0.54;100.00;151233.69;5051843;28;20457;-76
2023/01/20 06:30:05;;;;;;;12.27;8.40;;;;;;;-0.54;100.00;151233.69;5023386;28;20453;-75
2023/01/20 06:32:31;;;;;;;12.90;9.17;;;;;;;-0.59;100.00;151220.88;5002566;28;20980;-76
2023/01/20 06:34:58;;;;;;;12.30;9.40;;;;;;;-0.54;100.00;151233.69;5032247;28;20473;-76
2023/01/20 06:37:25;;;;;;;11.03;9.07;;;;;;;-0.55;100.00;151229.81;5033171;28;20540;-76
2023/01/20 06:39:51;;;;;;;13.23;9.17;;;;;;;-0.59;100.00;151220.88;5020196;28;20541;-76
2023/01/20 06:42:19;;;;;;;12.80;9.20;;;;;;;-0.55;100.00;151229.81;5017032;28;20458;-75
2023/01/20 06:44:46;;;;;;;10.90;9.30;;;;;;;-0.59;100.00;151219.59;5036229;28;20459;-76
2023/01/20 06:47:13;;;;;;;12.57;8.90;;;;;;;-0.60;100.00;151218.28;5022976;28;20454;-75
2023/01/20 06:49:39;;;;;;;12.50;9.27;;;;;;;-0.64;100.00;151209.28;5038515;28;20449;-75
2023/01/20 06:52:07;;;;;;;12.07;9.30;;;;;;;-0.63;100.00;151211.88;5033444;28;20587;-75
2023/01/20 06:54:33;;;;;;;11.57;9.40;;;;;;;-0.61;100.00;151215.75;5034767;28;20504;-75
2023/01/20 06:57:00;;;;;;;12.30;8.63;;;;;;;-0.60;100.00;151218.28;5036377;28;20481;-75
2023/01/20 06:59:28;;;;;;;12.17;9.77;;;;;;;-0.61;100.00;151217.00;5019176;28;20458;-75
2023/01/20 07:01:55;;;;;;;14.77;9.90;;;;;;;-0.60;100.00;151218.28;5034968;28;20454;-75
2023/01/20 07:04:22;;;;;;;13.27;9.67;;;;;;;-0.56;100.00;151228.59;5005021;28;20465;-75
2023/01/20 07:06:49;;;;;;;12.00;9.00;;;;;;;-0.56;100.00;151228.59;5020259;28;20458;-75
2023/01/20 07:09:15;;;;;;;12.07;9.20;;;;;;;-0.55;100.00;151231.13;5027026;28;20545;-75
2023/01/20 07:11:42;;;;;;;12.10;9.63;;;;;;;-0.53;100.00;151236.22;5022106;28;20540;-75
2023/01/20 07:14:10;;;;;;;13.13;9.90;;;;;;;-0.52;100.00;151238.81;5032016;28;20466;-77
2023/01/20 07:16:44;;;;;;;10.90;8.90;;;;;;;-0.50;100.00;151243.94;5035886;28;20473;-76
2023/01/20 07:19:11;;;;;;;15.67;10.10;;;;;;;-0.47;100.00;151250.34;5021952;28;20453;-76
2023/01/20 07:21:38;;;;;;;14.87;10.43;;;;;;;-0.46;100.00;151252.94;5021029;28;20581;-76
2023/01/20 07:24:12;;;;;;;11.80;9.50;;;;;;;-0.46;100.00;151254.22;5032359;28;20449;-76
2023/01/20 07:26:53;;;;;;;13.77;9.00;;;;;;;-0.45;100.00;151256.75;5019305;28;20468;-76
2023/01/20 07:29:24;;;;;;;14.03;9.63;;;;;;;-0.41;100.00;151265.75;5036755;28;20446;-76
2023/01/20 07:31:52;;;;;;;13.03;10.17;;;;;;;-0.41;100.00;151267.03;5035481;28;20446;-76
2023/01/20 07:34:19;;;;;;;14.93;9.90;;;;;;;-0.41;100.00;151267.03;5032645;28;20486;-76
2023/01/20 07:36:46;;;;;;;13.07;9.77;;;;;;;-0.42;100.00;151264.47;5019419;28;20993;-76
2023/01/20 07:39:14;;;;;;;15.40;9.70;;;;;;;-0.35;100.00;151281.16;5033926;28;20517;-76
2023/01/20 07:41:42;;;;;;;13.20;10.10;;;;;;;-0.38;100.00;151274.75;5018093;28;20497;-76
2023/01/20 07:44:10;;;;;;;12.73;10.00;;;;;;;-0.35;100.00;151282.44;5044972;28;20617;-76
2023/01/20 07:46:36;;;;;;;16.40;11.10;;;;;;;-0.42;100.00;151264.47;5018769;28;20525;-76
2023/01/20 07:49:04;;;;;;;13.47;9.93;;;;;;;-0.43;100.00;151260.63;5033262;28;20569;-76
2023/01/20 07:51:31;;;;;;;12.40;9.27;;;;;;;-0.47;100.00;151251.63;5033496;28;20544;-76
2023/01/20 07:53:58;;;;;;;12.70;9.40;;;;;;;-0.48;100.00;151249.09;5034086;28;20567;-76
2023/01/20 07:56:26;;;;;;;12.13;9.60;;;;;;;-0.46;100.00;151254.22;5019885;28;20536;-76
2023/01/20 07:58:53;;;;;;;14.93;10.80;;;;;;;-0.45;100.00;151255.50;5030831;28;20828;-76
2023/01/20 08:01:21;;;;;;;13.83;10.20;;;;;;;-0.45;100.00;151256.75;5034346;28;20450;-76
2023/01/20 08:03:48;;;;;;;16.43;11.43;;;;;;;-0.39;100.00;151270.88;5028589;28;20490;-76
2023/01/20 08:06:18;;;;;;;14.50;10.57;;;;;;;-0.37;100.00;151276.03;5017767;28;20450;-76
2023/01/20 08:08:45;;;;;;;14.63;10.87;;;;;;;-0.34;100.00;151284.97;5020605;28;20516;-76
2023/01/20 08:11:15;;;;;;;13.67;10.97;;;;;;;-0.36;100.00;151278.56;5034856;28;20549;-77
2023/01/20 08:13:42;;;;;;;17.83;10.80;;;;;;;-0.41;100.00;151267.03;5022972;28;20782;-76
2023/01/20 08:16:10;;;;;;;14.43;10.50;;;;;;;-0.35;100.00;151282.44;5034737;28;21067;-76
2023/01/20 08:18:38;;;;;;;13.90;10.60;;;;;;;-0.29;100.00;151296.56;5015791;28;20569;-76
2023/01/20 08:21:07;;;;;;;16.33;10.50;;;;;;;-0.25;100.00;151308.09;5032133;28;20463;-76
2023/01/20 08:23:36;;;;;;;13.93;10.33;;;;;;;-0.18;100.00;151326.03;5019916;28;20442;-76
2023/01/20 08:26:05;;;;;;;12.80;10.00;;;;;;;-0.15;100.00;151332.47;5016190;28;20486;-77
2023/01/20 08:28:33;;;;;;;12.97;10.20;;;;;;;-0.10;100.00;151346.56;5021789;28;20450;-76
2023/01/20 08:31:04;;;;;;;14.23;10.50;;;;;;;-0.08;100.00;151350.44;5027618;28;20873;-77
2023/01/20 08:33:30;;;;;;;16.30;9.67;;;;;;;-0.07;100.00;151354.28;5033609;28;20461;-76
2023/01/20 08:36:03;;;;;;;20.43;9.83;;;;;;;-0.07;100.00;151354.28;5032405;28;20528;-77
2023/01/20 08:38:30;;;;;;;12.90;10.00;;;;;;;-0.09;100.00;151349.16;5034896;28;20482;-76
2023/01/20 08:40:58;;;;;;;13.03;9.20;;;;;;;-0.12;100.00;151340.16;5039683;28;20537;-76
2023/01/20 08:43:25;;;;;;;13.43;9.37;;;;;;;-0.09;100.00;151347.88;5029011;28;20945;-77
2023/01/20 08:45:58;;;;;;;14.17;10.77;;;;;;;-0.11;100.00;151344.00;5020669;28;20890;-76
2023/01/20 08:48:25;;;;;;;13.23;9.73;;;;;;;-0.05;100.00;151358.09;5040972;28;20545;-77
2023/01/20 08:50:51;;;;;;;10.67;9.10;;;;;;;-0.01;100.00;151368.41;5037800;28;20564;-77
2023/01/20 08:53:18;;;;;;;15.17;10.77;;;;;;;-0.03;100.00;151363.28;5019268;28;20488;-76
2023/01/20 08:55:45;;;;;;;11.00;8.77;;;;;;;-0.04;100.00;151360.69;5020111;28;20601;-76
2023/01/20 08:58:13;;;;;;;13.50;10.17;;;;;;;-0.06;100.00;151356.88;5037365;28;20535;-76
2023/01/20 09:00:40;;;;;;;13.13;10.67;;;;;;;-0.03;100.00;151363.28;5037494;28;20473;-77
2023/01/20 09:03:07;;;;;;;13.57;9.90;;;;;;;0.00;100.00;151372.22;5036258;28;20470;-76
2023/01/20 09:05:36;;;;;;;12.10;10.07;;;;;;;0.02;100.00;151374.81;5019130;28;20447;-76
2023/01/20 09:08:02;;;;;;;13.00;9.77;;;;;;;0.03;100.00;151378.63;5034712;28;20457;-76
2023/01/20 09:10:31;;;;;;;12.03;9.87;;;;;;;0.10;100.00;151395.34;5033938;28;20448;-77
2023/01/20 09:12:58;;;;;;;13.90;9.80;;;;;;;0.11;100.00;151397.94;5016945;28;20824;-77
2023/01/20 09:15:26;;;;;;;14.03;9.93;;;;;;;0.11;100.00;151399.16;5007863;28;20458;-76
2023/01/20 09:17:53;;;;;;;12.50;9.70;;;;;;;0.16;100.00;151410.75;5032665;28;20445;-76
2023/01/20 09:20:20;;;;;;;11.13;9.70;;;;;;;0.13;100.00;151403.06;5032661;28;20995;-77
2023/01/20 09:22:47;;;;;;;12.70;9.63;;;;;;;0.18;100.00;151415.88;5033393;28;20454;-76
2023/01/20 09:25:13;;;;;;;11.43;9.20;;;;;;;0.21;100.00;151424.88;5035574;28;20962;-77
2023/01/20 09:27:40;;;;;;;12.77;10.47;;;;;;;0.27;100.00;151438.97;5033652;28;20454;-76
2023/01/20 09:30:08;;;;;;;13.23;9.53;;;;;;;0.23;100.00;151430.00;5026291;28;20539;-76
2023/01/20 09:32:36;;;;;;;12.80;9.63;;;;;;;0.23;100.00;151428.72;5035944;28;20476;-76
2023/01/20 09:35:03;;;;;;;12.50;10.00;;;;;;;0.21;100.00;151423.59;5036458;28;20556;-77
2023/01/20 09:45:55;;;;;;;14.10;10.47;;;;;;;0.27;100.00;151438.97;5021694;28;20451;-77
2023/01/20 09:54:05;;;;;;;12.47;8.80;;;;;;;0.31;100.00;151449.25;5050446;28;20447;-77
2023/01/20 09:56:36;;;;;;;13.23;10.40;;;;;;;0.30;100.00;151446.66;5038005;28;20508;-77
2023/01/20 09:59:06;;;;;;;10.47;9.23;;;;;;;0.31;100.00;151449.25;5022647;28;20789;-77
2023/01/20 10:01:36;;;;;;;11.67;9.50;;;;;;;0.34;100.00;151456.97;5022270;28;20981;-76
2023/01/20 10:04:09;;;;;;;11.77;9.13;;;;;;;0.34;100.00;151456.97;5034719;28;20486;-77
2023/01/20 10:06:40;;;;;;;13.37;9.97;;;;;;;0.40;100.00;151472.31;5020982;28;20924;-77
2023/01/20 10:09:11;;;;;;;10.90;8.87;;;;;;;0.45;100.00;151486.44;5021078;28;20462;-77
2023/01/20 10:11:41;;;;;;;13.60;10.40;;;;;;;0.48;100.00;151494.16;5038196;28;20504;-76
2023/01/20 10:14:15;;;;;;;13.50;10.37;;;;;;;0.52;100.00;151503.16;5022658;28;20455;-77
2023/01/20 10:16:48;;;;;;;15.63;11.33;;;;;;;0.59;100.00;151521.13;5023403;28;20467;-77
2023/01/20 10:19:20;;;;;;;14.07;10.47;;;;;;;0.64;100.00;151532.72;5020931;28;20454;-77
2023/01/20 10:21:51;;;;;;;12.17;9.10;;;;;;;0.62;100.00;151528.81;5004851;28;20470;-77
2023/01/20 10:24:23;;;;;;;14.23;10.63;;;;;;;0.68;100.00;151542.97;5020865;28;20554;-77
2023/01/20 10:26:52;;;;;;;16.10;10.87;;;;;;;0.71;100.00;151550.66;5007566;28;20457;-77
2023/01/20 10:29:23;;;;;;;11.90;10.07;;;;;;;0.75;100.00;151560.91;5032929;28;20962;-77
2023/01/20 10:31:54;;;;;;;14.07;10.97;;;;;;;0.82;100.00;151580.16;5037697;28;20446;-77
2023/01/20 10:34:22;;;;;;;13.40;10.60;;;;;;;0.88;100.00;151594.31;5033376;28;20450;-77
2023/01/20 10:36:56;;;;;;;14.63;11.23;;;;;;;0.96;100.00;151616.16;5019851;28;20471;-77
2023/01/20 10:39:29;;;;;;;11.80;9.70;;;;;;;0.94;100.00;151609.72;5021000;28;20488;-77
2023/01/20 10:42:03;;;;;;;13.73;10.10;;;;;;;1.00;100.00;151625.16;5037181;28;20447;-78
2023/01/20 10:44:33;;;;;;;11.40;9.10;;;;;;;0.99;100.00;151623.84;5034707;28;20469;-78
2023/01/20 10:47:13;;;;;;;13.13;9.93;;;;;;;1.02;100.00;151630.28;5038473;28;20446;-78
2023/01/20 10:49:53;;;;;;;11.60;9.27;;;;;;;1.05;100.00;151638.00;5036017;28;20458;-78
2023/01/20 10:52:31;;;;;;;14.53;9.10;;;;;;;1.09;100.00;151649.53;5022395;28;20457;-78
2023/01/20 10:55:07;;;;;;;13.13;9.60;;;;;;;1.13;100.00;151658.53;5022521;28;20450;-78
2023/01/20 10:57:34;;;;;;;11.90;9.00;;;;;;;1.10;100.00;151652.13;5052793;28;20463;-77
2023/01/20 11:00:06;;;;;;;11.33;8.83;;;;;;;1.14;100.00;151662.38;5044474;28;20459;-77
2023/01/20 11:02:36;;;;;;;14.30;9.30;;;;;;;1.17;100.00;151668.78;5024882;28;20477;-77
2023/01/20 11:05:18;;;;;;;11.47;10.27;;;;;;;1.19;100.00;151675.22;5040025;28;20502;-77
2023/01/20 11:07:46;;;;;;;13.73;9.37;;;;;;;1.20;100.00;151677.81;5021491;28;20541;-77
2023/01/20 11:10:17;;;;;;;11.60;9.50;;;;;;;1.23;100.00;151684.22;5020919;28;20489;-77
2023/01/20 11:12:45;;;;;;;12.10;9.40;;;;;;;1.20;100.00;151677.81;5003956;28;20462;-77
2023/01/20 11:15:18;;;;;;;11.60;10.07;;;;;;;1.15;100.00;151664.97;5048556;28;20454;-77
2023/01/20 11:17:44;;;;;;;12.97;9.27;;;;;;;1.13;100.00;151659.84;5022701;28;20536;-77
2023/01/20 11:20:19;;;;;;;12.60;8.80;;;;;;;1.08;100.00;151647.00;5047317;28;20568;-77
2023/01/20 11:22:48;;;;;;;13.00;8.03;;;;;;;1.00;100.00;151626.44;5023716;28;20505;-77
2023/01/20 11:25:24;;;;;;;10.57;7.90;;;;;;;1.01;100.00;151628.97;5021365;28;20497;-78
2023/01/20 11:27:51;;;;;;;10.67;8.53;;;;;;;1.01;100.00;151628.97;5004029;28;20460;-77